createdAt,value
2022-11-01T00:01:36.302Z,16.10
2022-11-01T00:04:03.665Z,16.00
2022-11-01T00:06:30.884Z,15.80
2022-11-01T00:08:58.224Z,15.80
2022-11-01T00:11:25.375Z,15.80
2022-11-01T00:13:52.585Z,15.70
2022-11-01T00:16:20.986Z,15.70
2022-11-01T00:18:48.806Z,15.70
2022-11-01T00:21:16.494Z,15.70
2022-11-01T00:23:43.896Z,15.80
2022-11-01T00:26:16.811Z,15.90
2022-11-01T00:28:43.986Z,15.80
2022-11-01T00:31:12.918Z,15.70
2022-11-01T00:33:40.708Z,15.70
2022-11-01T00:36:09.275Z,15.60
2022-11-01T00:38:36.975Z,15.60
2022-11-01T00:41:05.185Z,15.50
2022-11-01T00:43:33.615Z,15.50
2022-11-01T00:46:01.538Z,15.40
2022-11-01T00:48:28.905Z,15.40
2022-11-01T00:50:56.082Z,15.30
2022-11-01T00:53:23.384Z,15.20
2022-11-01T00:55:50.876Z,15.10
2022-11-01T00:58:18.259Z,15.10
2022-11-01T01:00:45.459Z,15.10
2022-11-01T01:03:12.754Z,15.10
2022-11-01T01:05:39.865Z,15.10
2022-11-01T01:08:07.064Z,14.90
2022-11-01T01:10:34.295Z,14.80
2022-11-01T01:13:01.781Z,14.80
2022-11-01T01:15:29.315Z,14.90
2022-11-01T01:17:56.545Z,14.90
2022-11-01T01:20:24.394Z,14.90
2022-11-01T01:22:51.656Z,14.80
2022-11-01T01:25:21.015Z,14.70
2022-11-01T01:27:48.316Z,14.70
2022-11-01T01:30:16.006Z,14.60
2022-11-01T01:32:43.415Z,14.60
2022-11-01T01:35:11.119Z,14.60
2022-11-01T01:37:38.334Z,14.50
2022-11-01T01:40:08.874Z,14.50
2022-11-01T01:42:38.522Z,14.40
2022-11-01T01:45:06.864Z,14.50
2022-11-01T01:47:38.044Z,14.50
2022-11-01T01:50:15.335Z,14.50
2022-11-01T01:53:06.675Z,14.50
2022-11-01T01:55:51.335Z,14.40
2022-11-01T01:58:22.125Z,14.40
2022-11-01T02:00:49.653Z,14.30
2022-11-01T02:03:17.136Z,14.30
2022-11-01T02:06:08.109Z,14.30
2022-11-01T02:08:37.084Z,14.30
2022-11-01T02:11:06.887Z,14.20
2022-11-01T02:13:35.046Z,14.10
2022-11-01T02:16:16.854Z,14.00
2022-11-01T02:19:41.486Z,14.00
2022-11-01T02:22:41.373Z,14.10
2022-11-01T02:25:29.674Z,14.10
2022-11-01T02:28:42.068Z,14.00
2022-11-01T02:31:30.180Z,14.00
2022-11-01T02:34:10.845Z,13.90
2022-11-01T02:36:44.607Z,14.00
2022-11-01T02:39:18.855Z,14.00
2022-11-01T02:41:53.394Z,14.00
2022-11-01T02:44:25.615Z,14.00
2022-11-01T02:47:01.603Z,14.00
2022-11-01T02:49:38.084Z,14.00
2022-11-01T02:52:07.745Z,14.00
2022-11-01T02:54:42.515Z,13.90
2022-11-01T02:57:32.875Z,13.80
2022-11-01T03:00:04.278Z,13.80
2022-11-01T03:02:43.836Z,13.70
2022-11-01T03:05:41.805Z,13.80
2022-11-01T03:08:12.864Z,13.70
2022-11-01T03:10:53.844Z,13.70
2022-11-01T03:13:29.887Z,13.70
2022-11-01T03:16:08.725Z,13.70
2022-11-01T03:18:39.984Z,13.60
2022-11-01T03:21:16.874Z,13.60
2022-11-01T03:23:52.708Z,13.70
2022-11-01T03:26:27.274Z,13.80
2022-11-01T03:28:59.726Z,13.80
2022-11-01T03:31:31.663Z,13.80
2022-11-01T03:34:03.130Z,13.80
2022-11-01T03:36:34.914Z,13.80
2022-11-01T03:39:48.525Z,13.90
2022-11-01T03:42:20.324Z,13.90
2022-11-01T03:44:52.955Z,13.90
2022-11-01T03:47:20.454Z,14.10
2022-11-01T03:49:47.610Z,14.00
2022-11-01T03:52:14.908Z,13.90
2022-11-01T03:54:42.028Z,13.80
2022-11-01T03:57:09.414Z,13.70
2022-11-01T03:59:36.745Z,13.70
2022-11-01T04:02:04.033Z,13.70
2022-11-01T04:04:31.246Z,13.60
2022-11-01T04:06:58.425Z,13.60
2022-11-01T04:09:25.604Z,13.60
2022-11-01T04:11:52.895Z,13.60
2022-11-01T04:14:38.564Z,13.60
2022-11-01T04:17:24.296Z,13.60
2022-11-01T04:20:10.255Z,13.60
2022-11-01T04:22:38.444Z,13.50
2022-11-01T04:25:05.896Z,13.50
2022-11-01T04:27:33.116Z,13.40
2022-11-01T04:30:00.275Z,13.40
2022-11-01T04:32:27.476Z,13.30
2022-11-01T04:34:54.654Z,13.30
2022-11-01T04:37:21.996Z,13.30
2022-11-01T04:39:49.135Z,13.40
2022-11-01T04:42:16.336Z,13.40
2022-11-01T04:47:24.605Z,13.30
2022-11-01T04:49:51.785Z,13.30
2022-11-01T04:52:19.125Z,13.20
2022-11-01T04:54:46.316Z,13.20
2022-11-01T04:57:23.056Z,13.20
2022-11-01T04:59:54.383Z,13.20
2022-11-01T05:02:23.549Z,13.20
2022-11-01T05:04:51.069Z,13.30
2022-11-01T05:07:18.377Z,13.40
2022-11-01T05:09:45.526Z,13.40
2022-11-01T05:12:13.127Z,13.30
2022-11-01T05:14:40.436Z,13.30
2022-11-01T05:17:07.606Z,13.20
2022-11-01T05:19:34.884Z,13.20
2022-11-01T05:22:02.126Z,13.10
2022-11-01T05:24:29.338Z,13.10
2022-11-01T05:26:56.564Z,13.10
2022-11-01T05:29:32.654Z,13.10
2022-11-01T05:32:01.224Z,13.10
2022-11-01T05:34:28.406Z,13.20
2022-11-01T05:36:55.667Z,13.30
2022-11-01T05:39:22.885Z,13.30
2022-11-01T05:41:50.256Z,13.30
2022-11-01T05:44:17.405Z,13.30
2022-11-01T05:46:44.575Z,13.30
2022-11-01T05:49:11.787Z,13.30
2022-11-01T05:51:39.426Z,13.30
2022-11-01T05:54:06.728Z,13.30
2022-11-01T05:56:33.966Z,13.40
2022-11-01T06:01:42.429Z,13.40
2022-11-01T06:04:09.728Z,13.40
2022-11-01T06:06:37.014Z,13.40
2022-11-01T06:09:04.276Z,13.40
2022-11-01T06:11:31.516Z,13.40
2022-11-01T06:13:59.696Z,13.40
2022-11-01T06:16:27.345Z,13.40
2022-11-01T06:18:54.809Z,13.50
2022-11-01T06:21:26.166Z,13.50
2022-11-01T06:23:57.388Z,13.50
2022-11-01T06:26:24.557Z,13.50
2022-11-01T06:28:51.766Z,13.50
2022-11-01T06:31:18.998Z,13.40
2022-11-01T06:33:50.065Z,13.40
2022-11-01T06:36:17.325Z,13.40
2022-11-01T06:38:44.485Z,13.30
2022-11-01T06:41:11.786Z,13.30
2022-11-01T06:43:38.975Z,13.30
2022-11-01T06:46:06.255Z,13.30
2022-11-01T06:48:33.586Z,13.30
2022-11-01T06:51:04.766Z,13.20
2022-11-01T06:53:32.199Z,13.20
2022-11-01T06:56:00.055Z,13.20
2022-11-01T06:58:28.127Z,13.20
2022-11-01T07:00:55.494Z,13.20
2022-11-01T07:03:22.806Z,13.20
2022-11-01T07:05:50.579Z,13.20
2022-11-01T07:08:17.933Z,13.20
2022-11-01T07:10:45.300Z,13.20
2022-11-01T07:13:14.009Z,13.20
2022-11-01T07:15:41.507Z,13.10
2022-11-01T07:18:09.837Z,13.20
2022-11-01T07:20:43.968Z,13.20
2022-11-01T07:25:57.926Z,13.20
2022-11-01T07:28:25.477Z,13.20
2022-11-01T07:30:54.357Z,13.30
2022-11-01T07:33:21.896Z,13.30
2022-11-01T07:35:49.475Z,13.30
2022-11-01T07:38:17.072Z,13.30
2022-11-01T07:40:49.593Z,13.30
2022-11-01T07:43:17.886Z,13.40
2022-11-01T07:45:45.496Z,13.40
2022-11-01T07:48:16.025Z,13.50
2022-11-01T07:50:44.375Z,13.50
2022-11-01T07:53:17.686Z,13.50
2022-11-01T07:55:45.937Z,13.50
2022-11-01T07:58:14.631Z,13.50
2022-11-01T08:00:43.604Z,13.50
2022-11-01T08:03:16.487Z,13.50
2022-11-01T08:05:44.665Z,13.60
2022-11-01T08:08:12.301Z,13.60
2022-11-01T08:10:40.313Z,13.60
2022-11-01T08:13:21.004Z,13.70
2022-11-01T08:15:49.754Z,13.80
2022-11-01T08:18:18.286Z,13.80
2022-11-01T08:20:45.585Z,13.90
2022-11-01T08:23:12.965Z,14.10
2022-11-01T08:25:40.433Z,14.20
2022-11-01T08:28:11.555Z,14.30
2022-11-01T08:30:40.214Z,14.40
2022-11-01T08:33:07.566Z,14.50
2022-11-01T08:35:35.256Z,14.70
2022-11-01T08:40:44.976Z,14.90
2022-11-01T08:43:12.145Z,15.10
2022-11-01T08:45:39.476Z,15.20
2022-11-01T08:48:07.183Z,15.30
2022-11-01T08:50:35.445Z,15.50
2022-11-01T08:53:14.617Z,15.50
2022-11-01T08:55:42.200Z,15.70
2022-11-01T08:58:09.774Z,15.80
2022-11-01T09:00:37.356Z,15.90
2022-11-01T09:03:05.272Z,16.10
2022-11-01T09:05:32.995Z,16.30
2022-11-01T09:08:01.686Z,16.40
2022-11-01T09:10:31.175Z,16.50
2022-11-01T09:13:02.068Z,16.60
2022-11-01T09:15:29.813Z,16.90
2022-11-01T09:17:57.025Z,17.00
2022-11-01T09:20:24.446Z,17.10
2022-11-01T09:22:55.267Z,17.30
2022-11-01T09:25:22.478Z,17.30
2022-11-01T09:27:49.715Z,17.20
2022-11-01T09:30:17.007Z,17.40
2022-11-01T09:32:44.177Z,17.60
2022-11-01T09:35:11.435Z,17.70
2022-11-01T09:37:38.717Z,17.70
2022-11-01T09:40:06.786Z,17.80
2022-11-01T09:42:40.044Z,17.80
2022-11-01T09:45:29.626Z,18.00
2022-11-01T09:50:40.845Z,18.30
2022-11-01T09:53:09.885Z,18.50
2022-11-01T09:55:55.454Z,18.50
2022-11-01T09:58:41.846Z,18.50
2022-11-01T10:01:43.310Z,18.40
2022-11-01T10:04:41.446Z,18.30
2022-11-01T10:07:17.715Z,18.30
2022-11-01T10:09:54.011Z,18.30
2022-11-01T10:12:46.975Z,18.30
2022-11-01T10:18:18.485Z,18.20
2022-11-01T10:20:46.666Z,18.40
2022-11-01T10:23:17.599Z,18.70
2022-11-01T10:25:51.577Z,19.00
2022-11-01T10:28:32.560Z,19.20
2022-11-01T10:31:05.576Z,19.40
2022-11-01T10:33:38.936Z,19.40
2022-11-01T10:36:13.817Z,19.40
2022-11-01T10:41:45.540Z,19.50
2022-11-01T10:44:38.667Z,19.30
2022-11-01T10:47:19.217Z,19.60
2022-11-01T10:50:05.593Z,19.70
2022-11-01T10:53:00.217Z,19.80
2022-11-01T10:55:59.358Z,19.90
2022-11-01T10:58:37.537Z,20.00
2022-11-01T11:01:09.886Z,20.10
2022-11-01T11:03:41.362Z,20.00
2022-11-01T11:06:14.016Z,20.00
2022-11-01T11:08:44.059Z,20.00
2022-11-01T11:11:18.647Z,19.90
2022-11-01T11:13:55.257Z,19.80
2022-11-01T11:16:44.821Z,19.80
2022-11-01T11:19:16.448Z,19.80
2022-11-01T11:21:46.740Z,19.80
2022-11-01T11:24:36.997Z,20.00
2022-11-01T11:27:17.779Z,20.10
2022-11-01T11:30:06.797Z,20.10
2022-11-01T11:32:39.011Z,20.20
2022-11-01T11:35:16.724Z,20.20
2022-11-01T11:38:01.776Z,20.30
2022-11-01T11:40:42.387Z,20.40
2022-11-01T11:43:34.360Z,20.50
2022-11-01T11:46:05.783Z,20.50
2022-11-01T11:48:33.466Z,20.50
2022-11-01T11:51:06.389Z,20.50
2022-11-01T11:53:34.222Z,20.40
2022-11-01T11:56:06.966Z,20.30
2022-11-01T12:01:31.605Z,20.20
2022-11-01T12:04:12.377Z,20.00
2022-11-01T12:06:44.658Z,19.80
2022-11-01T12:12:40.816Z,19.70
2022-11-01T12:15:43.600Z,19.90
2022-11-01T12:18:16.323Z,20.10
2022-11-01T12:20:49.237Z,20.30
2022-11-01T12:23:39.656Z,20.30
2022-11-01T12:26:13.956Z,20.10
2022-11-01T12:28:53.819Z,19.90
2022-11-01T12:31:23.956Z,19.70
2022-11-01T12:34:00.047Z,19.70
2022-11-01T12:36:36.038Z,19.70
2022-11-01T12:39:38.688Z,19.80
2022-11-01T12:42:06.237Z,19.80
2022-11-01T12:44:43.018Z,19.70
2022-11-01T12:47:37.458Z,19.70
2022-11-01T12:53:06.326Z,19.80
2022-11-01T12:55:39.029Z,19.90
2022-11-01T12:58:15.910Z,20.00
2022-11-01T13:01:20.159Z,19.90
2022-11-01T13:04:12.496Z,19.70
2022-11-01T13:07:04.658Z,19.50
2022-11-01T13:09:46.457Z,19.30
2022-11-01T13:12:34.359Z,19.30
2022-11-01T13:15:10.479Z,19.30
2022-11-01T13:17:47.488Z,19.30
2022-11-01T13:20:43.069Z,19.50
2022-11-01T13:23:30.467Z,19.50
2022-11-01T13:26:19.048Z,19.60
2022-11-01T13:29:08.379Z,19.70
2022-11-01T13:32:02.337Z,19.80
2022-11-01T13:34:51.597Z,20.00
2022-11-01T13:37:56.619Z,20.20
2022-11-01T13:40:34.828Z,20.20
2022-11-01T13:43:17.037Z,20.20
2022-11-01T13:46:06.878Z,20.20
2022-11-01T13:49:00.967Z,20.20
2022-11-01T13:51:37.597Z,20.00
2022-11-01T13:54:35.457Z,19.70
2022-11-01T13:57:13.716Z,19.60
2022-11-01T13:59:44.839Z,19.50
2022-11-01T14:02:24.425Z,19.50
2022-11-01T14:05:09.531Z,19.50
2022-11-01T14:07:45.907Z,19.40
2022-11-01T14:10:22.026Z,19.30
2022-11-01T14:13:07.371Z,19.30
2022-11-01T14:15:39.640Z,19.20
2022-11-01T14:18:11.108Z,19.20
2022-11-01T14:20:44.846Z,19.40
2022-11-01T14:23:30.288Z,19.40
2022-11-01T14:26:18.901Z,19.40
2022-11-01T14:28:48.671Z,19.30
2022-11-01T14:31:17.988Z,19.20
2022-11-01T14:33:49.470Z,19.30
2022-11-01T14:36:21.167Z,19.30
2022-11-01T14:38:56.778Z,19.20
2022-11-01T14:41:26.729Z,19.00
2022-11-01T14:44:06.139Z,19.00
2022-11-01T14:46:41.953Z,19.00
2022-11-01T14:49:55.079Z,19.00
2022-11-01T14:52:47.298Z,19.10
2022-11-01T14:55:35.277Z,19.10
2022-11-01T14:58:24.281Z,19.10
2022-11-01T15:00:55.134Z,19.20
2022-11-01T15:03:23.182Z,19.10
2022-11-01T15:05:52.898Z,19.20
2022-11-01T15:08:57.018Z,19.20
2022-11-01T15:11:28.608Z,19.30
2022-11-01T15:13:57.061Z,19.40
2022-11-01T15:16:29.538Z,19.40
2022-11-01T15:19:02.175Z,19.50
2022-11-01T15:21:31.398Z,19.30
2022-11-01T15:23:59.405Z,19.20
2022-11-01T15:26:33.036Z,19.20
2022-11-01T15:29:01.547Z,19.10
2022-11-01T15:31:29.536Z,19.00
2022-11-01T15:33:58.567Z,19.00
2022-11-01T15:36:33.804Z,18.90
2022-11-01T15:39:04.858Z,18.90
2022-11-01T15:41:35.594Z,18.80
2022-11-01T15:44:06.331Z,18.80
2022-11-01T15:46:43.577Z,18.70
2022-11-01T15:49:19.288Z,18.70
2022-11-01T15:51:51.468Z,18.70
2022-11-01T15:54:31.885Z,18.70
2022-11-01T15:57:03.618Z,18.60
2022-11-01T15:59:46.498Z,18.60
2022-11-01T16:02:23.052Z,18.50
2022-11-01T16:04:50.841Z,18.50
2022-11-01T16:07:21.178Z,18.40
2022-11-01T16:09:59.018Z,18.30
2022-11-01T16:15:23.898Z,18.20
2022-11-01T16:17:55.755Z,18.10
2022-11-01T16:20:35.525Z,18.00
2022-11-01T16:23:14.574Z,17.90
2022-11-01T16:25:41.855Z,17.90
2022-11-01T16:28:08.995Z,17.80
2022-11-01T16:30:46.654Z,17.80
2022-11-01T16:33:25.665Z,17.80
2022-11-01T16:35:53.430Z,17.70
2022-11-01T16:38:44.395Z,17.70
2022-11-01T16:41:17.577Z,17.60
2022-11-01T16:43:45.504Z,17.60
2022-11-01T16:46:12.904Z,17.50
2022-11-01T16:48:57.739Z,17.40
2022-11-01T16:51:28.687Z,17.30
2022-11-01T16:53:57.288Z,17.30
2022-11-01T16:56:36.967Z,17.30
2022-11-01T16:59:15.925Z,17.30
2022-11-01T17:01:46.197Z,17.30
2022-11-01T17:04:14.544Z,17.20
2022-11-01T17:06:41.845Z,17.10
2022-11-01T17:09:17.754Z,17.00
2022-11-01T17:11:51.833Z,17.00
2022-11-01T17:14:20.577Z,17.00
2022-11-01T17:16:49.954Z,17.00
2022-11-01T17:19:25.164Z,17.00
2022-11-01T17:21:53.954Z,16.90
2022-11-01T17:24:24.185Z,16.90
2022-11-01T17:26:52.346Z,16.80
2022-11-01T17:29:19.543Z,16.70
2022-11-01T17:31:46.845Z,16.70
2022-11-01T17:34:14.115Z,16.60
2022-11-01T17:36:46.284Z,16.60
2022-11-01T17:39:13.576Z,16.60
2022-11-01T17:41:41.035Z,16.60
2022-11-01T17:44:09.555Z,16.50
2022-11-01T17:46:36.945Z,16.50
2022-11-01T17:49:05.627Z,16.40
2022-11-01T17:51:32.935Z,16.40
2022-11-01T17:54:00.166Z,16.40
2022-11-01T17:56:27.314Z,16.40
2022-11-01T17:58:54.863Z,16.40
2022-11-01T18:01:22.212Z,16.40
2022-11-01T18:03:55.976Z,16.30
2022-11-01T18:06:23.274Z,16.30
2022-11-01T18:08:51.835Z,16.30
2022-11-01T18:11:39.745Z,16.20
2022-11-01T18:14:30.225Z,16.20
2022-11-01T18:17:09.065Z,16.20
2022-11-01T18:19:53.066Z,16.20
2022-11-01T18:22:25.954Z,16.10
2022-11-01T18:24:58.155Z,16.10
2022-11-01T18:27:36.325Z,16.00
2022-11-01T18:30:18.977Z,15.90
2022-11-01T18:33:20.075Z,15.80
2022-11-01T18:36:16.198Z,15.80
2022-11-01T18:39:09.585Z,15.80
2022-11-01T18:41:36.865Z,15.70
2022-11-01T18:44:10.746Z,15.60
2022-11-01T18:46:49.342Z,15.50
2022-11-01T18:49:16.621Z,15.40
2022-11-01T18:51:44.692Z,15.40
2022-11-01T18:54:12.792Z,15.30
2022-11-01T18:56:43.651Z,15.20
2022-11-01T18:59:16.601Z,15.10
2022-11-01T19:01:44.148Z,15.10
2022-11-01T19:04:13.836Z,15.00
2022-11-01T19:06:41.073Z,14.90
2022-11-01T19:09:25.855Z,14.80
2022-11-01T19:12:13.032Z,14.80
2022-11-01T19:14:40.471Z,14.70
2022-11-01T19:17:20.032Z,14.60
2022-11-01T19:19:47.781Z,14.60
2022-11-01T19:22:32.896Z,14.50
2022-11-01T19:25:01.845Z,14.60
2022-11-01T19:27:29.762Z,14.60
2022-11-01T19:29:59.067Z,14.60
2022-11-01T19:32:26.790Z,14.60
2022-11-01T19:34:55.322Z,14.60
2022-11-01T19:37:33.057Z,14.60
2022-11-01T19:40:12.871Z,14.50
2022-11-01T19:42:40.172Z,14.50
2022-11-01T19:45:10.171Z,14.50
2022-11-01T19:47:41.551Z,14.40
2022-11-01T19:50:16.663Z,14.40
2022-11-01T19:52:47.434Z,14.40
2022-11-01T19:55:46.197Z,14.40
2022-11-01T19:58:28.689Z,14.30
2022-11-01T20:01:09.910Z,14.30
2022-11-01T20:04:00.912Z,14.30
2022-11-01T20:06:29.879Z,14.30
2022-11-01T20:09:06.802Z,14.30
2022-11-01T20:11:34.392Z,14.40
2022-11-01T20:14:02.003Z,14.30
2022-11-01T20:16:29.261Z,14.30
2022-11-01T20:18:56.494Z,14.30
2022-11-01T20:21:23.783Z,14.30
2022-11-01T20:23:50.973Z,14.30
2022-11-01T20:26:18.551Z,14.30
2022-11-01T20:28:45.822Z,14.30
2022-11-01T20:31:13.412Z,14.40
2022-11-01T20:33:41.132Z,14.40
2022-11-01T20:36:11.410Z,14.50
2022-11-01T20:38:39.632Z,14.50
2022-11-01T20:41:07.112Z,14.50
2022-11-01T20:43:34.571Z,14.50
2022-11-01T20:46:01.861Z,14.50
2022-11-01T20:48:29.256Z,14.50
2022-11-01T20:50:56.624Z,14.50
2022-11-01T20:53:29.396Z,14.50
2022-11-01T20:55:57.096Z,14.60
2022-11-01T20:58:24.845Z,14.60
2022-11-01T21:00:52.232Z,14.70
2022-11-01T21:03:21.664Z,14.70
2022-11-01T21:05:50.211Z,14.70
2022-11-01T21:08:24.091Z,14.70
2022-11-01T21:10:53.707Z,14.70
2022-11-01T21:13:51.991Z,14.70
2022-11-01T21:16:31.011Z,14.80
2022-11-01T21:19:04.275Z,14.80
2022-11-01T21:21:42.654Z,14.80
2022-11-01T21:24:23.604Z,14.80
2022-11-01T21:26:55.740Z,14.90
2022-11-01T21:29:28.002Z,14.90
2022-11-01T21:31:56.483Z,14.90
2022-11-01T21:34:27.942Z,15.00
2022-11-01T21:36:57.953Z,15.00
2022-11-01T21:39:33.168Z,15.00
2022-11-01T21:42:22.692Z,15.10
2022-11-01T21:44:50.032Z,15.10
2022-11-01T21:47:22.292Z,15.10
2022-11-01T21:49:50.792Z,15.10
2022-11-01T21:52:21.782Z,15.20
2022-11-01T21:54:49.820Z,15.20
2022-11-01T21:57:17.814Z,15.20
2022-11-01T21:59:45.102Z,15.20
2022-11-01T22:02:14.120Z,15.20
2022-11-01T22:04:41.564Z,15.20
2022-11-01T22:07:10.326Z,15.20
2022-11-01T22:09:38.122Z,15.30
2022-11-01T22:12:06.868Z,15.30
2022-11-01T22:14:34.551Z,15.40
2022-11-01T22:17:01.882Z,15.50
2022-11-01T22:19:29.170Z,15.40
2022-11-01T22:21:56.480Z,15.40
2022-11-01T22:24:24.066Z,15.30
2022-11-01T22:26:51.476Z,15.20
2022-11-01T22:29:18.676Z,15.20
2022-11-01T22:31:45.888Z,15.30
2022-11-01T22:34:13.264Z,15.30
2022-11-01T22:36:42.067Z,15.40
2022-11-01T22:39:18.476Z,15.40
2022-11-01T22:41:45.757Z,15.30
2022-11-01T22:47:01.508Z,15.30
2022-11-01T22:49:45.697Z,15.20
2022-11-01T22:52:21.696Z,15.20
2022-11-01T22:54:53.233Z,15.10
2022-11-01T22:57:27.425Z,15.00
2022-11-01T23:00:21.217Z,14.90
2022-11-01T23:02:48.543Z,14.90
2022-11-01T23:05:25.696Z,14.80
2022-11-01T23:07:58.278Z,14.90
2022-11-01T23:10:25.797Z,14.90
2022-11-01T23:13:21.455Z,14.90
2022-11-01T23:15:48.725Z,14.90
2022-11-01T23:18:22.472Z,14.90
2022-11-01T23:21:07.385Z,14.90
2022-11-01T23:23:41.996Z,15.00
2022-11-01T23:26:10.137Z,15.00
2022-11-01T23:28:43.167Z,15.00
2022-11-01T23:31:11.035Z,15.00
2022-11-01T23:33:43.508Z,15.10
2022-11-01T23:36:30.486Z,15.00
2022-11-01T23:39:04.596Z,14.90
2022-11-01T23:41:38.240Z,14.80
2022-11-01T23:44:31.419Z,14.70
2022-11-01T23:47:14.346Z,14.60
2022-11-01T23:49:42.627Z,14.50
2022-11-01T23:52:41.606Z,14.40
2022-11-01T23:55:22.483Z,14.30
